Time;durP1;ratioP1;P1;durP2;ratioP2;P2;SDS_P1;SDS_P2;PMS_P1;PMS_P2;Temp;Humidity;BMP_temperature;BMP_pressure;BME280_temperature;BME280_humidity;BME280_pressure;Samples;Min_cycle;Max_cycle;Signal;HPM_P1;HPM_P2
2021/06/21 00:01:16;;;;;;;19.13;11.93;;;;;;;;;;6246324;23;20154;-90
2021/06/21 00:04:22;;;;;;;18.35;12.52;;;;;;;;;;6246443;23;20241;-88
2021/06/21 00:07:27;;;;;;;17.55;12.23;;;;;;;;;;6247809;23;20174;-88
2021/06/21 00:10:34;;;;;;;17.75;12.18;;;;;;;;;;6246614;22;20196;-91
2021/06/21 00:13:45;;;;;;;17.95;12.70;;;;;;;;;;6247363;23;20185;-89
2021/06/21 00:16:50;;;;;;;20.42;11.88;;;;;;;;;;6247397;23;20166;-91
2021/06/21 00:23:18;;;;;;;17.98;12.40;;;;;;;;;;6245354;22;20209;-90
2021/06/21 00:26:24;;;;;;;19.92;12.23;;;;;;;;;;6247623;22;20181;-89
2021/06/21 00:29:33;;;;;;;19.95;12.60;;;;;;;;;;6265463;22;20170;-89
2021/06/21 00:32:41;;;;;;;20.77;12.50;;;;;;;;;;6247005;22;20212;-90
2021/06/21 00:35:46;;;;;;;15.90;12.13;;;;;;;;;;6245448;23;20494;-89
2021/06/21 00:38:51;;;;;;;18.70;12.88;;;;;;;;;;6244715;23;20193;-90
2021/06/21 00:41:56;;;;;;;18.90;12.88;;;;;;;;;;6245279;22;20171;-90
2021/06/21 00:45:04;;;;;;;19.58;13.02;;;;;;;;;;6243875;22;20721;-90
2021/06/21 00:48:09;;;;;;;23.25;12.88;;;;;;;;;;6245118;23;20217;-89
2021/06/21 00:51:15;;;;;;;19.42;13.23;;;;;;;;;;6244592;23;20182;-90
2021/06/21 00:54:20;;;;;;;19.67;13.40;;;;;;;;;;6244746;23;20174;-89
2021/06/21 00:57:25;;;;;;;21.77;14.32;;;;;;;;;;6245060;23;20198;-88
2021/06/21 01:00:33;;;;;;;20.52;13.93;;;;;;;;;;6244288;22;20171;-87
2021/06/21 01:03:38;;;;;;;18.38;13.30;;;;;;;;;;6246452;23;20154;-87
2021/06/21 01:06:44;;;;;;;23.05;13.52;;;;;;;;;;6246117;23;20711;-89
2021/06/21 01:09:50;;;;;;;24.20;14.48;;;;;;;;;;6245050;23;20186;-87
2021/06/21 01:13:04;;;;;;;19.77;13.48;;;;;;;;;;6244320;23;20186;-87
2021/06/21 01:16:18;;;;;;;18.83;13.63;;;;;;;;;;6245095;22;20166;-88
2021/06/21 01:19:26;;;;;;;22.33;14.52;;;;;;;;;;6244750;23;20237;-90
2021/06/21 01:22:50;;;;;;;19.13;13.90;;;;;;;;;;6246230;23;20674;-90
2021/06/21 01:25:58;;;;;;;18.95;13.18;;;;;;;;;;6244360;23;20187;-90
2021/06/21 01:29:16;;;;;;;20.90;14.05;;;;;;;;;;6245360;22;20182;-88
2021/06/21 01:32:38;;;;;;;21.98;14.15;;;;;;;;;;6244829;23;20163;-89
2021/06/21 01:35:45;;;;;;;23.13;13.90;;;;;;;;;;6246545;23;20171;-89
2021/06/21 01:38:51;;;;;;;22.38;13.88;;;;;;;;;;6245139;23;20597;-89
2021/06/21 01:41:58;;;;;;;23.38;14.00;;;;;;;;;;6244532;22;20154;-89
2021/06/21 01:45:04;;;;;;;24.58;12.32;;;;;;;;;;6246174;22;20170;-88
2021/06/21 01:48:11;;;;;;;22.60;10.82;;;;;;;;;;6244125;23;20170;-91
2021/06/21 01:51:19;;;;;;;23.65;10.65;;;;;;;;;;6245512;23;20601;-89
2021/06/21 01:54:25;;;;;;;22.83;10.35;;;;;;;;;;6244242;23;20206;-89
2021/06/21 01:57:31;;;;;;;21.38;8.90;;;;;;;;;;6262242;22;20194;-89
2021/06/21 02:00:37;;;;;;;20.70;7.80;;;;;;;;;;6245233;23;20213;-88
2021/06/21 02:03:44;;;;;;;20.38;8.82;;;;;;;;;;6245940;23;20233;-89
2021/06/21 02:06:51;;;;;;;23.90;8.27;;;;;;;;;;6246142;23;20268;-91
2021/06/21 02:09:57;;;;;;;24.30;8.15;;;;;;;;;;6246002;23;20238;-90
2021/06/21 02:13:02;;;;;;;27.10;8.05;;;;;;;;;;6246227;22;20677;-90
2021/06/21 02:16:09;;;;;;;28.27;7.95;;;;;;;;;;6246882;23;20174;-88
2021/06/21 02:19:16;;;;;;;18.65;7.97;;;;;;;;;;6244986;22;20167;-89
2021/06/21 02:22:22;;;;;;;19.20;7.03;;;;;;;;;;6245507;23;20162;-89
2021/06/21 02:25:27;;;;;;;23.63;7.70;;;;;;;;;;6246338;23;20162;-89
2021/06/21 02:28:33;;;;;;;34.40;7.32;;;;;;;;;;6244189;23;20177;-89
2021/06/21 02:31:38;;;;;;;20.65;6.78;;;;;;;;;;6246214;23;20147;-90
2021/06/21 02:34:45;;;;;;;16.52;5.68;;;;;;;;;;6245770;22;20241;-87
2021/06/21 02:37:50;;;;;;;17.70;5.95;;;;;;;;;;6245797;23;20169;-90
2021/06/21 02:40:55;;;;;;;21.00;5.00;;;;;;;;;;6245796;22;20145;-89
2021/06/21 02:44:00;;;;;;;21.25;5.45;;;;;;;;;;6244521;23;20223;-87
2021/06/21 02:47:06;;;;;;;22.77;5.20;;;;;;;;;;6244704;23;20182;-90
2021/06/21 02:50:13;;;;;;;21.20;5.93;;;;;;;;;;6244969;22;20175;-90
2021/06/21 02:53:21;;;;;;;18.08;5.47;;;;;;;;;;6243460;23;20171;-90
2021/06/21 02:56:31;;;;;;;27.00;5.18;;;;;;;;;;6245439;23;20257;-89
2021/06/21 02:59:38;;;;;;;22.15;5.18;;;;;;;;;;6232607;23;20195;-90
2021/06/21 03:02:45;;;;;;;31.63;5.43;;;;;;;;;;6233590;22;20175;-89
2021/06/21 03:05:52;;;;;;;23.63;5.53;;;;;;;;;;6232160;22;20166;-89
2021/06/21 03:08:57;;;;;;;23.75;5.50;;;;;;;;;;6230987;22;20222;-90
2021/06/21 03:12:03;;;;;;;18.52;4.78;;;;;;;;;;6231335;22;20168;-89
2021/06/21 03:15:09;;;;;;;25.02;5.57;;;;;;;;;;6231809;22;20206;-91
2021/06/21 03:18:14;;;;;;;18.23;5.07;;;;;;;;;;6231586;23;20210;-90
2021/06/21 03:21:21;;;;;;;22.95;5.35;;;;;;;;;;6231251;23;20206;-88
2021/06/21 03:24:27;;;;;;;20.05;4.65;;;;;;;;;;6231385;23;20175;-89
2021/06/21 03:27:32;;;;;;;17.65;4.90;;;;;;;;;;6231556;22;20202;-90
2021/06/21 03:30:37;;;;;;;16.10;4.53;;;;;;;;;;6231838;23;20155;-89
2021/06/21 03:33:42;;;;;;;20.27;4.80;;;;;;;;;;6231062;22;20163;-90
2021/06/21 03:36:49;;;;;;;24.25;5.00;;;;;;;;;;6231025;22;20200;-87
2021/06/21 03:39:55;;;;;;;18.77;5.50;;;;;;;;;;6230153;22;20214;-89
2021/06/21 03:43:00;;;;;;;21.67;5.47;;;;;;;;;;6230127;22;20166;-91
2021/06/21 03:46:06;;;;;;;26.75;5.53;;;;;;;;;;6230734;22;20170;-87
2021/06/21 03:49:11;;;;;;;18.33;5.30;;;;;;;;;;6230557;23;20250;-90
2021/06/21 03:52:20;;;;;;;20.95;6.07;;;;;;;;;;6229814;22;20176;-89
2021/06/21 03:55:25;;;;;;;24.77;5.55;;;;;;;;;;6230709;22;20682;-89
2021/06/21 03:58:30;;;;;;;25.10;6.20;;;;;;;;;;6229696;22;20206;-88
2021/06/21 04:01:43;;;;;;;17.70;5.78;;;;;;;;;;6229423;22;20171;-90
2021/06/21 04:04:50;;;;;;;19.88;5.53;;;;;;;;;;6229285;22;20167;-89
2021/06/21 04:07:56;;;;;;;19.60;6.32;;;;;;;;;;6227155;22;20195;-89
2021/06/21 04:11:01;;;;;;;21.23;6.00;;;;;;;;;;6229234;22;20290;-89
2021/06/21 04:14:07;;;;;;;21.58;6.28;;;;;;;;;;6228765;23;20166;-89
2021/06/21 04:17:12;;;;;;;22.48;6.80;;;;;;;;;;6226875;22;20221;-88
2021/06/21 04:20:18;;;;;;;17.98;6.38;;;;;;;;;;6229084;22;20163;-89
2021/06/21 04:23:25;;;;;;;20.83;6.35;;;;;;;;;;6227968;23;20167;-89
2021/06/21 04:26:31;;;;;;;20.48;7.28;;;;;;;;;;6228634;22;20198;-89
2021/06/21 04:29:37;;;;;;;23.10;7.32;;;;;;;;;;6232152;22;20175;-89
2021/06/21 04:32:43;;;;;;;18.85;6.95;;;;;;;;;;6231892;22;20215;-90
2021/06/21 04:35:48;;;;;;;24.38;7.35;;;;;;;;;;6229409;23;20163;-89
2021/06/21 04:38:54;;;;;;;23.25;6.30;;;;;;;;;;6230110;22;20171;-90
2021/06/21 04:42:00;;;;;;;20.08;6.03;;;;;;;;;;6233688;23;20192;-89
2021/06/21 04:45:06;;;;;;;25.10;6.10;;;;;;;;;;6233205;22;20175;-91
2021/06/21 04:48:11;;;;;;;21.45;5.70;;;;;;;;;;6230587;23;20190;-89
2021/06/21 04:51:18;;;;;;;22.35;5.43;;;;;;;;;;6231071;22;20243;-89
2021/06/21 04:54:25;;;;;;;19.70;4.68;;;;;;;;;;6231042;23;20218;-88
2021/06/21 04:57:31;;;;;;;17.27;5.15;;;;;;;;;;6239244;22;20235;-89
2021/06/21 05:00:36;;;;;;;17.55;4.43;;;;;;;;;;6242411;22;20225;-89
2021/06/21 05:03:43;;;;;;;15.00;4.72;;;;;;;;;;6243425;23;20162;-89
2021/06/21 05:06:48;;;;;;;14.60;4.15;;;;;;;;;;6246015;23;20190;-87
2021/06/21 05:09:56;;;;;;;20.90;5.03;;;;;;;;;;6244933;23;20167;-88
2021/06/21 05:13:01;;;;;;;14.52;4.22;;;;;;;;;;6242301;23;20548;-89
2021/06/21 05:16:06;;;;;;;14.10;4.75;;;;;;;;;;6247694;23;20178;-89
2021/06/21 05:19:11;;;;;;;23.73;4.95;;;;;;;;;;6246462;23;20158;-90
2021/06/21 05:22:16;;;;;;;16.27;4.18;;;;;;;;;;6244263;23;20262;-89
2021/06/21 05:25:25;;;;;;;22.15;4.25;;;;;;;;;;6243822;23;20210;-90
2021/06/21 05:28:30;;;;;;;15.52;4.47;;;;;;;;;;6263396;23;20221;-89
2021/06/21 05:31:36;;;;;;;19.90;3.90;;;;;;;;;;6242266;22;20497;-88
2021/06/21 05:34:41;;;;;;;15.80;3.67;;;;;;;;;;6244026;23;20231;-91
2021/06/21 05:37:46;;;;;;;14.68;3.40;;;;;;;;;;6244206;23;20221;-88
2021/06/21 05:40:53;;;;;;;18.77;4.15;;;;;;;;;;6244851;23;20166;-89
2021/06/21 13:06:46;;;;;;;13.80;2.50;;;;;;;;;;6188744;22;20195;-91
2021/06/21 13:09:55;;;;;;;13.93;2.80;;;;;;;;;;6244507;23;20174;-90
2021/06/21 13:13:04;;;;;;;15.65;2.15;;;;;;;;;;6247052;23;20162;-91
2021/06/21 13:16:10;;;;;;;13.68;2.80;;;;;;;;;;6243732;23;20237;-92
2021/06/21 13:19:17;;;;;;;15.07;2.50;;;;;;;;;;6242301;23;20625;-88
2021/06/21 13:22:36;;;;;;;17.65;2.08;;;;;;;;;;6244672;22;20162;-91
2021/06/21 13:25:45;;;;;;;14.25;2.22;;;;;;;;;;6241651;23;20456;-90
2021/06/21 13:28:50;;;;;;;12.77;2.10;;;;;;;;;;6241342;23;20267;-90
2021/06/21 13:31:57;;;;;;;17.35;3.17;;;;;;;;;;6241822;23;20173;-92
2021/06/21 13:35:10;;;;;;;13.25;2.80;;;;;;;;;;6239878;23;20162;-91
2021/06/21 13:38:24;;;;;;;10.88;2.33;;;;;;;;;;6246786;23;20165;-91
2021/06/21 13:41:31;;;;;;;15.60;2.35;;;;;;;;;;6247108;23;20181;-92
2021/06/21 13:44:40;;;;;;;17.27;2.22;;;;;;;;;;6248077;22;20204;-92
2021/06/21 13:47:45;;;;;;;16.63;2.75;;;;;;;;;;6242000;23;20189;-90
2021/06/21 13:50:52;;;;;;;17.83;2.50;;;;;;;;;;6242545;23;20169;-91
2021/06/21 13:54:07;;;;;;;14.27;2.53;;;;;;;;;;6244922;23;20666;-91
2021/06/21 13:57:16;;;;;;;9.95;1.92;;;;;;;;;;6246152;23;20185;-93
2021/06/21 17:19:53;;;;;;;15.90;2.65;;;;;;;;;;6193212;22;20195;-90
2021/06/21 17:22:59;;;;;;;16.05;2.90;;;;;;;;;;6242684;23;20166;-90
2021/06/21 17:26:14;;;;;;;19.63;3.13;;;;;;;;;;6246578;22;20162;-90
2021/06/21 17:29:19;;;;;;;18.98;2.55;;;;;;;;;;6240990;23;20197;-91
2021/06/21 17:32:27;;;;;;;25.25;3.03;;;;;;;;;;6241656;23;20622;-90
2021/06/21 17:39:10;;;;;;;17.10;3.30;;;;;;;;;;6243973;22;20154;-90
2021/06/21 17:42:15;;;;;;;16.60;2.70;;;;;;;;;;6245368;23;20626;-90
2021/06/21 17:45:21;;;;;;;21.00;3.10;;;;;;;;;;6242965;23;20179;-91
2021/06/21 17:48:26;;;;;;;17.20;3.20;;;;;;;;;;6242873;23;20219;-89
2021/06/21 17:51:33;;;;;;;24.40;3.42;;;;;;;;;;6244342;23;20215;-90
2021/06/21 17:54:40;;;;;;;21.88;3.35;;;;;;;;;;6243212;23;20166;-91
2021/06/21 22:02:05;;;;;;;22.80;5.10;;;;;;;;;;6240428;22;20215;-90
2021/06/21 22:05:10;;;;;;;23.83;5.75;;;;;;;;;;6239941;23;20270;-91
2021/06/21 22:08:16;;;;;;;29.90;5.60;;;;;;;;;;6214278;23;20187;-91
2021/06/21 22:11:21;;;;;;;19.40;5.28;;;;;;;;;;6241849;23;20211;-89
2021/06/21 22:14:26;;;;;;;23.55;5.10;;;;;;;;;;6242677;23;20278;-91
2021/06/21 22:17:33;;;;;;;28.42;6.05;;;;;;;;;;6242370;23;20249;-90
2021/06/21 22:20:39;;;;;;;23.95;5.65;;;;;;;;;;6239350;23;20170;-91
2021/06/21 22:23:44;;;;;;;21.73;5.68;;;;;;;;;;6239324;23;20551;-89
2021/06/21 22:26:49;;;;;;;22.65;5.22;;;;;;;;;;6239604;22;20158;-90
2021/06/21 22:29:55;;;;;;;19.20;5.70;;;;;;;;;;6237932;23;20206;-90
2021/06/21 22:33:02;;;;;;;25.52;5.85;;;;;;;;;;6240300;23;20170;-89
2021/06/21 22:36:07;;;;;;;24.58;6.90;;;;;;;;;;6240259;23;20497;-89
2021/06/21 22:39:11;;;;;;;35.58;8.35;;;;;;;;;;6240811;23;20178;-90
2021/06/21 22:42:16;;;;;;;23.00;7.40;;;;;;;;;;6240130;23;20167;-89
2021/06/21 22:45:21;;;;;;;27.92;7.03;;;;;;;;;;6240469;22;20217;-89
2021/06/21 22:48:28;;;;;;;23.88;5.80;;;;;;;;;;6239713;23;20209;-90
2021/06/21 22:51:33;;;;;;;31.83;6.80;;;;;;;;;;6241632;23;20230;-90
2021/06/21 22:54:38;;;;;;;30.75;7.43;;;;;;;;;;6240572;23;20166;-90
2021/06/21 22:57:43;;;;;;;24.55;7.13;;;;;;;;;;6240074;23;20521;-89
2021/06/21 23:00:48;;;;;;;25.80;5.40;;;;;;;;;;6240951;23;20231;-90
2021/06/21 23:03:54;;;;;;;15.10;3.55;;;;;;;;;;6239699;23;20165;-89
2021/06/21 23:07:00;;;;;;;7.18;1.95;;;;;;;;;;6241032;23;20169;-90
2021/06/21 23:10:05;;;;;;;2.17;1.75;;;;;;;;;;6241202;23;20190;-88
2021/06/21 23:13:10;;;;;;;0.68;0.57;;;;;;;;;;6241366;23;20170;-89
2021/06/21 23:16:15;;;;;;;2.13;1.25;;;;;;;;;;6240228;22;20183;-89
2021/06/21 23:19:21;;;;;;;4.75;1.55;;;;;;;;;;6239485;22;20177;-90
2021/06/21 23:22:26;;;;;;;3.42;1.10;;;;;;;;;;6241480;23;20182;-90
2021/06/21 23:25:31;;;;;;;1.25;0.90;;;;;;;;;;6240038;22;20249;-90
2021/06/21 23:28:36;;;;;;;1.25;0.93;;;;;;;;;;6238241;23;20253;-90
2021/06/21 23:31:41;;;;;;;1.20;1.10;;;;;;;;;;6239283;23;20154;-90
2021/06/21 23:34:48;;;;;;;0.95;0.68;;;;;;;;;;6238341;23;20171;-90
2021/06/21 23:37:53;;;;;;;4.60;1.13;;;;;;;;;;6239751;22;20186;-91
2021/06/21 23:40:58;;;;;;;0.65;0.65;;;;;;;;;;6240025;23;20182;-89
2021/06/21 23:44:03;;;;;;;0.60;0.60;;;;;;;;;;6240910;23;20635;-90
2021/06/21 23:47:08;;;;;;;2.17;0.95;;;;;;;;;;6239575;23;20173;-90
2021/06/21 23:50:15;;;;;;;0.65;0.60;;;;;;;;;;6258909;22;20202;-91
2021/06/21 23:53:20;;;;;;;1.33;0.80;;;;;;;;;;6239440;23;20286;-89
2021/06/21 23:56:25;;;;;;;0.45;0.45;;;;;;;;;;6240699;23;20258;-89
2021/06/21 23:59:30;;;;;;;0.32;0.32;;;;;;;;;;6241363;22;20175;-90
